»·PEaware :: N1128 KLAS-KFAT

N1128 :: KLAS-KFAT

FLIGHT INFORMATION

Flight Status: Arrived
Operator: Privately registered:
United States
More flights under this callsign
Pilot: Siddique N. (20419)
Aircraft: ECLIPSE 500
(EA50)
More flights by this aircraft type
Origin: KLAS McCarran Intl
United States
Destination: KFAT Fresno Yosemite Intl
United States
More flights between these airports :: More routes between these airports
Route: SHEAD1 KENNO Q162 CABAB FRA
File this flight plan on PilotEdge
Remarks:
Altitude:
(Current/Filed)
24,000ft
Speed:
(Current/Filed)
250kts
Departed: 29-Sep-20 09:37 AM
Arrived: 29-Sep-20 10:49 AM
Distance/Time
Traveled:
225nm/1:12
Distance/Time
To Go:
Arrived

Flight Plot

Page will automatically refresh every two minutes.

Flight plan parsing failed; only flown route is shown


Map Options




Map Legend


Flown Route
Filed Route
Departure Airport
Arrival Airport
Navaid (VOR, NDB)
Fix

Horizontal Profiles

Position Reports

Time Latitude Longitude Heading Altitude Ground
Speed
29-Sep-20 08:57 36.098819 -115.160144 113 2096ft 0kts
29-Sep-20 08:58 36.098819 -115.160144 113 2096ft 0kts
29-Sep-20 08:59 36.098819 -115.160144 113 2096ft 0kts
29-Sep-20 09:00 36.098819 -115.160144 113 2096ft 0kts
29-Sep-20 09:01 36.098819 -115.160144 113 2096ft 0kts
29-Sep-20 09:02 36.098819 -115.160144 113 2096ft 0kts
29-Sep-20 09:03 36.098819 -115.160144 113 2096ft 0kts
29-Sep-20 09:04 36.098819 -115.160144 113 2096ft 0kts
29-Sep-20 09:05 36.098819 -115.160144 113 2096ft 0kts
29-Sep-20 09:06 36.098819 -115.160144 113 2096ft 0kts
29-Sep-20 09:07 36.098819 -115.160144 113 2096ft 0kts
29-Sep-20 09:08 36.098819 -115.160144 113 2096ft 0kts
29-Sep-20 09:09 36.098819 -115.160144 113 2096ft 0kts
29-Sep-20 09:11 36.098819 -115.160144 113 2096ft 0kts
29-Sep-20 09:12 36.098819 -115.160144 113 2096ft 0kts
29-Sep-20 09:13 36.098819 -115.160144 113 2096ft 0kts
29-Sep-20 09:14 36.098819 -115.160144 113 2096ft 0kts
29-Sep-20 09:15 36.098819 -115.160144 113 2096ft 0kts
29-Sep-20 09:16 36.098819 -115.160144 113 2096ft 0kts
29-Sep-20 09:17 36.098819 -115.160144 113 2096ft 0kts
29-Sep-20 09:18 36.098819 -115.160144 113 2096ft 0kts
29-Sep-20 09:19 36.098819 -115.160144 113 2096ft 0kts
29-Sep-20 09:20 36.098819 -115.160144 113 2096ft 0kts
29-Sep-20 09:21 36.098819 -115.160144 113 2096ft 0kts
29-Sep-20 09:22 36.098819 -115.160144 113 2096ft 0kts
29-Sep-20 09:23 36.098819 -115.160144 113 2096ft 0kts
29-Sep-20 09:24 36.098819 -115.160144 113 2096ft 0kts
29-Sep-20 09:25 36.098819 -115.160144 113 2096ft 0kts
29-Sep-20 09:25 36.098819 -115.160144 113 2096ft 0kts
29-Sep-20 09:27 36.098819 -115.160144 113 2096ft 0kts
29-Sep-20 09:28 36.098819 -115.160144 113 2096ft 0kts
29-Sep-20 09:28 36.098819 -115.160144 113 2096ft 0kts
29-Sep-20 09:29 36.098819 -115.160144 113 2096ft 0kts
29-Sep-20 09:31 36.098819 -115.160144 113 2096ft 0kts
29-Sep-20 09:31 36.098819 -115.160144 113 2096ft 0kts
29-Sep-20 09:32 36.099386 -115.158961 53 2090ft 9kts
29-Sep-20 09:34 36.099925 -115.157535 82 2085ft 0kts
29-Sep-20 09:34 36.099925 -115.157535 82 2085ft 0kts
29-Sep-20 09:35 36.099557 -115.156501 202 2083ft 0kts
29-Sep-20 09:36 36.096512 -115.158265 206 2093ft 77kts
29-Sep-20 09:37 36.058982 -115.178198 205 3451ft 186kts
29-Sep-20 09:38 36.011548 -115.205898 219 6451ft 197kts
29-Sep-20 09:39 35.978736 -115.280042 242 6650ft 247kts
29-Sep-20 09:40 35.937862 -115.343707 224 8373ft 220kts
29-Sep-20 09:41 35.887500 -115.404078 229 8651ft 277kts
29-Sep-20 09:42 35.885508 -115.487587 273 10624ft 256kts
29-Sep-20 09:47 35.895441 -115.661132 271 10714ft 291kts
29-Sep-20 09:48 35.898479 -115.741950 269 14588ft 216kts
29-Sep-20 09:49 35.898791 -115.815657 268 16745ft 218kts
29-Sep-20 09:50 35.899095 -115.889969 269 18642ft 221kts
29-Sep-20 09:51 35.899820 -115.965801 269 20409ft 223kts
29-Sep-20 09:52 35.945871 -116.023021 316 21909ft 248kts
29-Sep-20 09:53 36.000999 -116.075801 313 23303ft 253kts
29-Sep-20 09:54 36.058362 -116.135193 311 23688ft 290kts
29-Sep-20 09:55 36.121009 -116.206361 311 23682ft 320kts
29-Sep-20 09:56 36.187892 -116.283401 311 23681ft 335kts
29-Sep-20 09:57 36.256630 -116.363082 312 23681ft 342kts
29-Sep-20 09:58 36.326316 -116.444122 312 23680ft 346kts
29-Sep-20 09:59 36.396519 -116.525914 312 23680ft 347kts
29-Sep-20 10:00 36.464421 -116.610997 308 23680ft 346kts
29-Sep-20 10:01 36.530749 -116.698521 308 23686ft 348kts
29-Sep-20 10:02 36.604690 -116.776058 326 23686ft 358kts
29-Sep-20 10:03 36.692258 -116.835161 324 23685ft 358kts
29-Sep-20 10:04 36.778111 -116.897232 324 23685ft 358kts
29-Sep-20 10:05 36.864227 -116.959635 325 23685ft 358kts
29-Sep-20 10:06 36.949643 -117.023489 324 23685ft 358kts
29-Sep-20 10:07 37.034592 -117.087804 324 23828ft 354kts
29-Sep-20 10:08 37.119314 -117.151973 324 23844ft 356kts
29-Sep-20 10:09 37.202983 -117.218049 321 23844ft 356kts
29-Sep-20 10:10 37.282352 -117.291371 312 23843ft 352kts
29-Sep-20 10:11 37.311020 -117.400938 274 23843ft 336kts
29-Sep-20 10:12 37.322519 -117.517556 274 23843ft 337kts
29-Sep-20 10:13 37.334131 -117.634629 274 23756ft 339kts
29-Sep-20 10:14 37.344727 -117.752177 271 23738ft 338kts
29-Sep-20 10:15 37.351195 -117.870085 271 23738ft 338kts
29-Sep-20 10:16 37.345111 -117.987323 263 23737ft 336kts
29-Sep-20 10:17 37.336453 -118.103856 261 23737ft 335kts
29-Sep-20 10:18 37.325782 -118.220085 262 23736ft 335kts
29-Sep-20 10:19 37.316259 -118.336362 260 23735ft 335kts
29-Sep-20 10:20 37.304167 -118.452184 261 23735ft 335kts
29-Sep-20 10:21 37.293522 -118.570069 261 23093ft 351kts
29-Sep-20 10:22 37.281371 -118.693417 257 21769ft 344kts
29-Sep-20 10:23 37.262322 -118.806190 255 20271ft 321kts
29-Sep-20 10:24 37.241437 -118.913392 254 18769ft 313kts
29-Sep-20 10:25 37.222207 -119.009204 254 17932ft 246kts
29-Sep-20 10:26 37.204752 -119.096584 254 15924ft 274kts
29-Sep-20 10:27 37.186933 -119.188663 255 13412ft 267kts
29-Sep-20 10:28 37.171398 -119.276253 254 12007ft 241kts
29-Sep-20 10:29 37.154819 -119.357889 253 12005ft 239kts
29-Sep-20 10:30 37.140285 -119.431259 254 10876ft 216kts
29-Sep-20 10:31 37.124854 -119.506848 254 9771ft 248kts
29-Sep-20 10:32 37.107281 -119.591046 254 8296ft 250kts
29-Sep-20 10:33 37.056488 -119.607940 153 6771ft 220kts
29-Sep-20 10:34 36.999666 -119.570160 151 6765ft 229kts
29-Sep-20 10:35 36.943663 -119.533289 152 5814ft 230kts
29-Sep-20 10:36 36.887247 -119.495070 152 4772ft 223kts
29-Sep-20 10:37 36.834560 -119.458791 152 4766ft 207kts
29-Sep-20 10:38 36.781082 -119.421959 153 4769ft 229kts
29-Sep-20 10:39 36.727011 -119.384790 152 4766ft 217kts
29-Sep-20 10:40 36.673407 -119.365918 212 4772ft 206kts
29-Sep-20 10:41 36.628343 -119.408336 256 4765ft 206kts
29-Sep-20 10:42 36.640419 -119.477764 304 3194ft 197kts
29-Sep-20 10:43 36.668082 -119.526042 306 2983ft 174kts
29-Sep-20 10:44 36.698602 -119.578928 303 2243ft 190kts
29-Sep-20 10:45 36.724728 -119.626494 306 1383ft 168kts
29-Sep-20 10:46 36.751645 -119.672852 307 814ft 163kts
29-Sep-20 10:47 36.775250 -119.714838 306 332ft 106kts
29-Sep-20 10:48 36.779772 -119.723899 230 332ft 1kts
29-Sep-20 10:49 36.776769 -119.727312 307 332ft 0kts
29-Sep-20 10:50 36.776769 -119.727312 307 332ft 0kts

Navigation Log

Ident Type
Flight plan parsing failed, navigation log unavailable